CYNL

METAR CYNL 082100Z AUTO 23002KT 9SM CLR M25/M29 A2989 RMK AO1 SLP222
METAR
LOCATION
CYNL
DATE - TIME
082100Z
WIND
230 TRUE @ 2 KNOTS
VISIBILITY
9SM
RUNWAY VISUAL RANGE
NOT REPORTED
WEATHER
CLOUDINESS
CLR
TEMP / DEWPOINT
-25 ºC / -29 ºC
ALTIMETER
29.89 in. Hg
RECENT WEATHER
NOT REPORTED
WIND SHEAR
NOT REPORTED
REMARKS
RMK AO1 SLP222
SEA LEVEL PRESSURE: hPa

CYNL

METAR CYNL 082000Z AUTO ///// 9SM CLR M25/M29 A2991 RMK AO1 SLP227
METAR
LOCATION
CYNL
DATE - TIME
082000Z
WIND
VISIBILITY
9SM
RUNWAY VISUAL RANGE
NOT REPORTED
WEATHER
CLOUDINESS
CLR
TEMP / DEWPOINT
-25 ºC / -29 ºC
ALTIMETER
29.91 in. Hg
RECENT WEATHER
NOT REPORTED
WIND SHEAR
NOT REPORTED
REMARKS
RMK AO1 SLP227
SEA LEVEL PRESSURE: hPa

CYNL

METAR CYNL 081900Z AUTO ///// 9SM CLR M26/M30 A2992 RMK AO1 PRESFR SLP233
METAR
LOCATION
CYNL
DATE - TIME
081900Z
WIND
VISIBILITY
9SM
RUNWAY VISUAL RANGE
NOT REPORTED
WEATHER
CLOUDINESS
CLR
TEMP / DEWPOINT
-26 ºC / -30 ºC
ALTIMETER
29.92 in. Hg
RECENT WEATHER
NOT REPORTED
WIND SHEAR
NOT REPORTED
REMARKS
RMK AO1 PRESFR SLP233
SEA LEVEL PRESSURE: hPa

Your time UTC time
 
 
Weather data provided by AXYS Technologies Inc., www.axystechnologies.com
 
Station History